地図

経路データ

SID SEASON NUMBER BASIN SUBBASIN NAME ISO_TIME NATURE LAT LON WMO_WIND WMO_PRES WMO_AGENCY TRACK_TYPE DIST2LAND LANDFALL IFLAG USA_AGENCY USA_ATCF_ID USA_LAT USA_LON USA_RECORD USA_STATUS USA_WIND USA_PRES USA_SSHS USA_R34_NE USA_R34_SE USA_R34_SW USA_R34_NW USA_R50_NE USA_R50_SE USA_R50_SW USA_R50_NW USA_R64_NE USA_R64_SE USA_R64_SW USA_R64_NW USA_POCI USA_ROCI USA_RMW USA_EYE TOKYO_LAT TOKYO_LON TOKYO_GRADE TOKYO_WIND TOKYO_PRES TOKYO_R50_DIR TOKYO_R50_LONG TOKYO_R50_SHORT TOKYO_R30_DIR TOKYO_R30_LONG TOKYO_R30_SHORT TOKYO_LAND CMA_LAT CMA_LON CMA_CAT CMA_WIND CMA_PRES HKO_LAT HKO_LON HKO_CAT HKO_WIND HKO_PRES NEWDELHI_LAT NEWDELHI_LON NEWDELHI_GRADE NEWDELHI_WIND NEWDELHI_PRES NEWDELHI_CI NEWDELHI_DP NEWDELHI_POCI REUNION_LAT REUNION_LON REUNION_TYPE REUNION_WIND REUNION_PRES REUNION_TNUM REUNION_CI REUNION_RMW REUNION_R34_NE REUNION_R34_SE REUNION_R34_SW REUNION_R34_NW REUNION_R50_NE REUNION_R50_SE REUNION_R50_SW REUNION_R50_NW REUNION_R64_NE REUNION_R64_SE REUNION_R64_SW REUNION_R64_NW BOM_LAT BOM_LON BOM_TYPE BOM_WIND BOM_PRES BOM_TNUM BOM_CI BOM_RMW BOM_R34_NE BOM_R34_SE BOM_R34_SW BOM_R34_NW BOM_R50_NE BOM_R50_SE BOM_R50_SW BOM_R50_NW BOM_R64_NE BOM_R64_SE BOM_R64_SW BOM_R64_NW BOM_ROCI BOM_POCI BOM_EYE BOM_POS_METHOD BOM_PRES_METHOD NADI_LAT NADI_LON NADI_CAT NADI_WIND NADI_PRES WELLINGTON_LAT WELLINGTON_LON WELLINGTON_WIND WELLINGTON_PRES DS824_LAT DS824_LON DS824_STAGE DS824_WIND DS824_PRES TD9636_LAT TD9636_LON TD9636_STAGE TD9636_WIND TD9636_PRES TD9635_LAT TD9635_LON TD9635_WIND TD9635_PRES TD9635_ROCI NEUMANN_LAT NEUMANN_LON NEUMANN_CLASS NEUMANN_WIND NEUMANN_PRES MLC_LAT MLC_LON MLC_CLASS MLC_WIND MLC_PRES USA_GUST BOM_GUST BOM_GUST_PER REUNION_GUST REUNION_GUST_PER USA_SEAHGT USA_SEARAD_NE USA_SEARAD_SE USA_SEARAD_SW USA_SEARAD_NW STORM_SPEED STORM_DIR
1887011S18040 1887 2 SI MM NOT_NAMED 1887-01-11 00:00:00 TS -17.8000 39.6000 main 104 104 _________O____ -1 -17.8000 39.6000 TC 6 209
1887011S18040 1887 2 SI MM NOT_NAMED 1887-01-11 03:00:00 TS -18.0626 39.4427 main 127 127 _________P____ -1 -18.0626 39.4427 TC 6 210
1887011S18040 1887 2 SI MM NOT_NAMED 1887-01-11 06:00:00 TS -18.3000 39.3000 main 147 147 _________O____ -1 -18.3000 39.3000 TC 5 210
1887011S18040 1887 2 SI MM NOT_NAMED 1887-01-11 09:00:00 TS -18.4999 39.1723 main 165 162 _________P____ -1 -18.4999 39.1723 TC 5 215
1887011S18040 1887 2 SI MM NOT_NAMED 1887-01-11 12:00:00 TS -18.7000 39.0000 main 181 181 _________O____ -1 -18.7000 39.0000 TC 6 224
1887011S18040 1887 2 SI MM NOT_NAMED 1887-01-11 15:00:00 TS -18.9425 38.7225 main 189 189 _________P____ -1 -18.9425 38.7225 TC 8 229
1887011S18040 1887 2 SI MM NOT_NAMED 1887-01-11 18:00:00 TS -19.2000 38.4000 main 192 177 _________O____ -1 -19.2000 38.4000 TC 8 233
1887011S18040 1887 2 SI MM NOT_NAMED 1887-01-11 21:00:00 TS -19.4426 38.0253 main 177 175 _________P____ -1 -19.4426 38.0253 TC 8 229
1887011S18040 1887 2 SI MM NOT_NAMED 1887-01-12 00:00:00 TS -19.7000 37.8000 main 181 181 _________O____ -1 -19.7000 37.8000 TC 6 192
1887011S18040 1887 2 SI MM NOT_NAMED 1887-01-12 03:00:00 TS -19.9999 37.8948 main 208 208 _________P____ -1 -19.9999 37.8948 TC 7 148
1887011S18040 1887 2 SI MM NOT_NAMED 1887-01-12 06:00:00 TS -20.3000 38.2000 main 253 253 _________O____ -1 -20.3000 38.2000 TC 9 129
1887011S18040 1887 2 SI MM NOT_NAMED 1887-01-12 09:00:00 TS -20.5503 38.6148 main 306 306 _________P____ -1 -20.5503 38.6148 TC 9 124
1887011S18040 1887 2 SI MM NOT_NAMED 1887-01-12 12:00:00 TS -20.8000 39.0000 main 353 353 _________O____ -1 -20.8000 39.0000 TC 7 138
1887011S18040 1887 2 SI MM NOT_NAMED 1887-01-12 15:00:00 TS -21.0923 39.1453 main 382 382 _________P____ -1 -21.0923 39.1453 TC 6 163
1887011S18040 1887 2 SI MM NOT_NAMED 1887-01-12 18:00:00 TS -21.4000 39.2000 main 392 387 _________O____ -1 -21.4000 39.2000 TC 5 171
1887011S18040 1887 2 SI MM NOT_NAMED 1887-01-12 21:00:00 TS -21.6248 39.2411 main 387 385 _________P____ -1 -21.6248 39.2411 TC 6 163
1887011S18040 1887 2 SI MM NOT_NAMED 1887-01-13 00:00:00 TS -22.0000 39.4000 main 392 350 _________O____ -1 -22.0000 39.4000 TC 12 154
1887011S18040 1887 2 SI MM NOT_NAMED 1887-01-13 03:00:00 TS -22.7402 39.8317 main 351 319 _________P____ -1 -22.7402 39.8317 TC 19 150
1887011S18040 1887 2 SI MM NOT_NAMED 1887-01-13 06:00:00 TS -23.6000 40.4000 main 319 282 _________O____ -1 -23.6000 40.4000 TC 18 148
1887011S18040 1887 2 SI MM NOT_NAMED 1887-01-13 09:00:00 TS -24.2918 40.8994 main 282 236 _________P____ -1 -24.2918 40.8994 TC 17 144
1887011S18040 1887 2 SI MM NOT_NAMED 1887-01-13 12:00:00 TS -25.0000 41.5000 main 236 196 _________O____ -1 -25.0000 41.5000 TC 20 141
1887011S18040 1887 2 SI MM NOT_NAMED 1887-01-13 15:00:00 TS -25.8349 42.2902 main 192 186 _________P____ -1 -25.8349 42.2902 TC 23 138
1887011S18040 1887 2 SI MM NOT_NAMED 1887-01-13 18:00:00 TS -26.7000 43.2000 main 197 191 _________O____ -1 -26.7000 43.2000 TC 24 135
1887011S18040 1887 2 SI MM NOT_NAMED 1887-01-13 21:00:00 TS -27.5186 44.1428 main 238 238 _________P____ -1 -27.5186 44.1428 TC 23 134
1887011S18040 1887 2 SI MM NOT_NAMED 1887-01-14 00:00:00 TS -28.3000 45.1000 main 301 _________O____ -1 -28.3000 45.1000 TC 23 133

IBTrACS Databaseについて

本データベースは、米国NOAAが公開する1842年以降の世界の熱帯低気圧のベストトラックデータアーカイブInternational Best Track Archive for Climate Stewardship (IBTrACS)を、ウェブで閲覧しやすい形式に変換したものです。

最終更新日:2021-10-27